createdAt,value
2018-08-28T00:02:14.344Z,19.00
2018-08-28T00:04:43.430Z,18.90
2018-08-28T00:07:13.196Z,18.80
2018-08-28T00:09:42.500Z,18.80
2018-08-28T00:12:11.657Z,18.80
2018-08-28T00:14:41.556Z,18.70
2018-08-28T00:17:10.794Z,18.70
2018-08-28T00:19:39.773Z,18.80
2018-08-28T00:22:08.941Z,18.70
2018-08-28T00:24:38.073Z,18.80
2018-08-28T00:27:07.195Z,18.80
2018-08-28T00:29:36.316Z,18.80
2018-08-28T00:32:06.063Z,18.90
2018-08-28T00:34:35.194Z,18.90
2018-08-28T00:37:04.255Z,18.90
2018-08-28T00:39:33.460Z,18.90
2018-08-28T00:42:02.685Z,18.90
2018-08-28T00:44:31.843Z,19.00
2018-08-28T00:47:01.008Z,19.00
2018-08-28T00:49:30.102Z,19.00
2018-08-28T00:51:59.239Z,19.10
2018-08-28T00:54:28.909Z,19.10
2018-08-28T00:56:57.997Z,19.20
2018-08-28T00:59:27.245Z,19.20
2018-08-28T01:01:56.389Z,19.20
2018-08-28T01:04:25.532Z,19.30
2018-08-28T01:06:54.589Z,19.30
2018-08-28T01:09:24.329Z,19.20
2018-08-28T01:11:53.384Z,19.10
2018-08-28T01:14:22.522Z,18.90
2018-08-28T01:16:51.774Z,18.80
2018-08-28T01:19:20.948Z,18.70
2018-08-28T01:21:50.136Z,18.70
2018-08-28T01:24:19.253Z,18.60
2018-08-28T01:26:48.330Z,18.50
2018-08-28T01:29:18.077Z,18.50
2018-08-28T01:31:47.216Z,18.50
2018-08-28T01:34:16.351Z,18.50
2018-08-28T01:36:45.520Z,18.50
2018-08-28T01:39:14.699Z,18.50
2018-08-28T01:41:43.948Z,18.50
2018-08-28T01:44:13.056Z,18.40
2018-08-28T01:46:42.200Z,18.40
2018-08-28T01:49:11.264Z,18.50
2018-08-28T01:51:40.463Z,18.50
2018-08-28T01:54:10.334Z,18.50
2018-08-28T01:56:39.367Z,18.40
2018-08-28T01:59:08.489Z,18.40
2018-08-28T02:01:37.572Z,18.40
2018-08-28T02:04:06.675Z,18.40
2018-08-28T02:06:35.829Z,18.30
2018-08-28T02:09:06.077Z,18.40
2018-08-28T02:11:35.151Z,18.30
2018-08-28T02:14:04.253Z,18.20
2018-08-28T02:16:33.357Z,18.10
2018-08-28T02:19:02.596Z,18.10
2018-08-28T02:21:31.690Z,18.00
2018-08-28T02:24:00.749Z,17.80
2018-08-28T02:26:30.586Z,17.80
2018-08-28T02:28:59.670Z,17.70
2018-08-28T02:31:28.721Z,17.70
2018-08-28T02:33:57.851Z,17.50
2018-08-28T02:36:27.509Z,17.40
2018-08-28T02:38:56.663Z,17.30
2018-08-28T02:41:26.441Z,17.30
2018-08-28T02:43:55.560Z,17.20
2018-08-28T02:46:24.632Z,17.10
2018-08-28T02:48:53.761Z,17.20
2018-08-28T02:51:22.826Z,17.20
2018-08-28T02:53:52.485Z,17.10
2018-08-28T02:56:21.744Z,17.20
2018-08-28T02:58:50.722Z,17.20
2018-08-28T03:01:20.495Z,17.10
2018-08-28T03:03:49.525Z,17.00
2018-08-28T03:06:18.646Z,16.70
2018-08-28T03:08:47.798Z,16.60
2018-08-28T03:11:16.836Z,16.50
2018-08-28T03:13:45.935Z,16.50
2018-08-28T03:16:15.010Z,16.50
2018-08-28T03:18:44.189Z,16.50
2018-08-28T03:21:13.418Z,16.30
2018-08-28T03:23:42.545Z,16.20
2018-08-28T03:26:11.668Z,16.10
2018-08-28T03:28:40.702Z,16.20
2018-08-28T03:31:09.901Z,16.20
2018-08-28T03:33:39.596Z,16.10
2018-08-28T03:36:08.749Z,16.10
2018-08-28T03:38:37.907Z,16.00
2018-08-28T03:41:07.013Z,16.00
2018-08-28T03:43:36.118Z,16.00
2018-08-28T03:46:05.265Z,16.10
2018-08-28T03:48:34.427Z,16.20
2018-08-28T03:51:04.164Z,16.20
2018-08-28T03:53:33.275Z,16.30
2018-08-28T03:56:02.348Z,16.30
2018-08-28T03:58:31.381Z,16.30
2018-08-28T04:01:00.461Z,16.20
2018-08-28T04:03:29.596Z,16.10
2018-08-28T04:05:58.735Z,16.00
2018-08-28T04:08:27.887Z,15.90
2018-08-28T04:10:57.088Z,15.80
2018-08-28T04:13:26.256Z,15.80
2018-08-28T04:15:55.363Z,15.80
2018-08-28T04:18:24.439Z,15.70
2018-08-28T04:20:53.517Z,15.70
2018-08-28T04:23:22.574Z,15.70
2018-08-28T04:25:52.268Z,15.90
2018-08-28T04:28:21.373Z,16.00
2018-08-28T04:30:50.610Z,16.00
2018-08-28T04:33:19.628Z,16.10
2018-08-28T04:35:48.746Z,16.10
2018-08-28T04:38:17.852Z,16.20
2018-08-28T04:40:46.948Z,16.30
2018-08-28T04:43:16.001Z,16.40
2018-08-28T04:45:45.101Z,16.50
2018-08-28T04:48:14.221Z,16.60
2018-08-28T04:50:43.333Z,16.70
2018-08-28T04:53:12.578Z,16.70
2018-08-28T04:55:41.876Z,16.70
2018-08-28T04:58:10.984Z,16.80
2018-08-28T05:00:40.047Z,16.90
2018-08-28T05:03:09.144Z,17.00
2018-08-28T05:05:38.782Z,17.00
2018-08-28T05:08:07.875Z,17.10
2018-08-28T05:10:37.545Z,17.10
2018-08-28T05:13:06.772Z,17.20
2018-08-28T05:15:35.928Z,17.30
2018-08-28T05:18:05.409Z,17.30
2018-08-28T05:20:35.115Z,17.40
2018-08-28T05:23:04.337Z,17.60
2018-08-28T05:25:33.445Z,17.70
2018-08-28T05:28:02.999Z,17.80
2018-08-28T05:30:32.192Z,17.80
2018-08-28T05:33:01.396Z,17.80
2018-08-28T05:35:30.595Z,17.80
2018-08-28T05:37:59.654Z,17.80
2018-08-28T05:40:28.757Z,17.70
2018-08-28T05:42:57.932Z,17.70
2018-08-28T05:45:27.684Z,17.60
2018-08-28T05:47:56.748Z,17.60
2018-08-28T05:50:25.766Z,17.80
2018-08-28T05:52:54.866Z,18.00
2018-08-28T05:55:24.074Z,18.40
2018-08-28T05:57:53.348Z,19.00
2018-08-28T06:00:22.562Z,19.50
2018-08-28T06:02:51.658Z,19.90
2018-08-28T06:05:20.685Z,20.30
2018-08-28T06:07:49.793Z,20.90
2018-08-28T06:10:18.835Z,21.50
2018-08-28T06:12:47.993Z,22.10
2018-08-28T06:15:17.068Z,22.60
2018-08-28T06:17:46.132Z,23.10
2018-08-28T06:20:15.287Z,23.70
2018-08-28T06:22:45.051Z,24.50
2018-08-28T06:25:14.120Z,24.80
2018-08-28T06:27:43.889Z,25.10
2018-08-28T06:30:12.924Z,25.30
2018-08-28T06:32:42.008Z,25.20
2018-08-28T06:35:11.064Z,25.10
2018-08-28T06:37:40.218Z,24.90
2018-08-28T06:40:09.297Z,25.30
2018-08-28T06:42:38.455Z,26.00
2018-08-28T06:45:07.588Z,26.70
2018-08-28T06:47:36.764Z,27.30
2018-08-28T06:50:06.902Z,28.00
2018-08-28T06:52:36.188Z,28.90
2018-08-28T06:55:05.643Z,29.30
2018-08-28T06:57:35.368Z,29.50
2018-08-28T07:00:04.471Z,29.00
2018-08-28T07:02:33.664Z,29.20
2018-08-28T07:05:02.674Z,29.10
2018-08-28T07:07:32.522Z,29.00
2018-08-28T07:10:01.690Z,28.60
2018-08-28T07:12:30.875Z,28.20
2018-08-28T07:14:59.923Z,27.90
2018-08-28T07:17:28.974Z,27.90
2018-08-28T07:19:58.165Z,27.80
2018-08-28T07:22:27.741Z,27.70
2018-08-28T07:24:57.228Z,27.40
2018-08-28T07:27:26.331Z,28.20
2018-08-28T07:29:55.419Z,28.60
2018-08-28T07:32:24.449Z,28.90
2018-08-28T07:34:53.551Z,29.00
2018-08-28T07:37:22.711Z,29.00
2018-08-28T07:39:51.951Z,29.00
2018-08-28T07:42:21.061Z,29.20
2018-08-28T07:44:50.123Z,30.10
2018-08-28T07:47:19.255Z,30.20
2018-08-28T07:49:48.360Z,30.50
2018-08-28T07:52:17.418Z,30.70
2018-08-28T07:54:46.572Z,30.30
2018-08-28T07:57:15.800Z,30.20
2018-08-28T07:59:44.963Z,30.20
2018-08-28T08:02:14.066Z,30.80
2018-08-28T08:04:43.163Z,31.10
2018-08-28T08:07:12.319Z,30.60
2018-08-28T08:09:41.436Z,30.30
2018-08-28T08:12:10.476Z,30.60
2018-08-28T08:14:39.628Z,31.00
2018-08-28T08:17:08.708Z,30.60
2018-08-28T08:19:37.833Z,31.00
2018-08-28T08:22:06.899Z,31.40
2018-08-28T08:24:35.984Z,31.80
2018-08-28T08:27:05.864Z,32.00
2018-08-28T08:29:35.625Z,32.00
2018-08-28T08:32:05.532Z,32.20
2018-08-28T08:34:34.727Z,32.20
2018-08-28T08:37:03.831Z,32.00
2018-08-28T08:39:32.975Z,32.00
2018-08-28T08:42:02.179Z,32.00
2018-08-28T08:44:31.254Z,31.80
2018-08-28T08:47:00.309Z,31.40
2018-08-28T08:49:29.497Z,30.40
2018-08-28T08:51:58.758Z,30.40
2018-08-28T08:54:27.952Z,30.60
2018-08-28T08:56:57.557Z,30.80
2018-08-28T08:59:26.774Z,30.70
2018-08-28T09:01:55.848Z,31.20
2018-08-28T09:04:25.269Z,31.20
2018-08-28T09:06:54.308Z,31.40
2018-08-28T09:09:23.481Z,31.90
2018-08-28T09:11:52.563Z,31.50
2018-08-28T09:14:21.691Z,32.10
2018-08-28T09:16:50.813Z,32.10
2018-08-28T09:19:20.023Z,31.90
2018-08-28T09:21:49.151Z,31.90
2018-08-28T09:24:18.297Z,31.90
2018-08-28T09:26:47.386Z,31.50
2018-08-28T09:29:16.491Z,30.90
2018-08-28T09:31:45.651Z,30.80
2018-08-28T09:34:14.837Z,31.10
2018-08-28T09:36:44.090Z,31.50
2018-08-28T09:39:13.227Z,32.20
2018-08-28T09:41:42.488Z,33.10
2018-08-28T09:44:11.721Z,32.50
2018-08-28T09:46:41.036Z,32.30
2018-08-28T09:49:10.161Z,32.70
2018-08-28T09:51:39.307Z,33.00
2018-08-28T09:54:08.967Z,33.40
2018-08-28T09:56:38.533Z,34.00
2018-08-28T09:59:07.573Z,34.30
2018-08-28T10:01:42.115Z,34.70
2018-08-28T10:12:50.240Z,33.50
2018-08-28T10:15:19.502Z,33.50
2018-08-28T10:17:48.593Z,33.40
2018-08-28T10:20:17.777Z,33.30
2018-08-28T10:34:10.533Z,33.90
2018-08-28T10:36:39.643Z,34.10
2018-08-28T10:39:09.187Z,33.70
2018-08-28T10:41:38.057Z,34.10
2018-08-28T10:44:06.897Z,34.70
2018-08-28T10:46:35.800Z,34.80
2018-08-28T10:49:04.653Z,34.80
2018-08-28T10:51:33.488Z,34.70
2018-08-28T10:54:02.299Z,35.00
2018-08-28T10:56:31.124Z,35.20
2018-08-28T10:59:00.000Z,35.10
2018-08-28T11:01:28.885Z,35.60
2018-08-28T11:03:57.703Z,35.30
2018-08-28T11:06:26.546Z,35.10
2018-08-28T11:08:55.396Z,35.00
2018-08-28T11:11:24.215Z,35.40
2018-08-28T11:13:53.273Z,34.90
2018-08-28T11:16:23.136Z,34.80
2018-08-28T11:18:52.203Z,35.00
2018-08-28T11:21:21.304Z,35.10
2018-08-28T11:23:51.091Z,35.10
2018-08-28T11:26:20.486Z,35.50
2018-08-28T11:28:49.724Z,35.90
2018-08-28T11:31:18.848Z,35.60
2018-08-28T11:33:47.988Z,36.00
2018-08-28T11:36:17.896Z,35.40
2018-08-28T11:38:47.053Z,35.20
2018-08-28T11:41:16.201Z,35.10
2018-08-28T11:43:45.276Z,34.10
2018-08-28T11:46:14.378Z,34.10
2018-08-28T11:48:43.560Z,35.10
2018-08-28T11:51:12.630Z,35.20
2018-08-28T11:53:41.786Z,34.90
2018-08-28T11:56:10.905Z,34.80
2018-08-28T11:58:40.038Z,34.90
2018-08-28T12:01:09.216Z,35.30
2018-08-28T12:03:38.351Z,35.90
2018-08-28T12:06:07.607Z,36.00
2018-08-28T12:08:37.172Z,35.70
2018-08-28T12:11:06.348Z,36.10
2018-08-28T12:13:35.592Z,36.10
2018-08-28T12:16:05.088Z,36.00
2018-08-28T12:18:34.156Z,36.70
2018-08-28T12:21:03.762Z,37.10
2018-08-28T12:23:32.871Z,36.30
2018-08-28T12:26:01.926Z,36.00
2018-08-28T12:28:31.054Z,36.10
2018-08-28T12:31:00.116Z,36.30
2018-08-28T12:33:29.334Z,36.40
2018-08-28T12:35:58.453Z,36.40
2018-08-28T12:38:27.705Z,36.40
2018-08-28T12:40:57.468Z,36.30
2018-08-28T12:43:26.701Z,35.60
2018-08-28T12:45:55.899Z,35.20
2018-08-28T12:48:25.008Z,35.20
2018-08-28T12:50:54.103Z,35.20
2018-08-28T12:53:23.906Z,34.80
2018-08-28T12:55:53.141Z,33.90
2018-08-28T12:58:22.552Z,33.10
2018-08-28T13:00:51.635Z,32.10
2018-08-28T13:03:20.885Z,31.50
2018-08-28T13:05:50.074Z,31.50
2018-08-28T13:08:19.785Z,31.40
2018-08-28T13:10:48.860Z,31.60
2018-08-28T13:13:18.409Z,32.20
2018-08-28T13:15:47.499Z,32.90
2018-08-28T13:18:16.891Z,33.30
2018-08-28T13:20:46.125Z,33.80
2018-08-28T13:23:16.019Z,34.30
2018-08-28T13:25:45.658Z,34.60
2018-08-28T13:28:15.058Z,35.00
2018-08-28T13:30:44.190Z,34.80
2018-08-28T13:33:13.427Z,34.50
2018-08-28T13:35:42.531Z,34.20
2018-08-28T13:38:11.688Z,34.20
2018-08-28T13:40:40.943Z,34.10
2018-08-28T13:43:09.924Z,34.20
2018-08-28T13:45:39.296Z,34.30
2018-08-28T13:48:08.432Z,34.10
2018-08-28T13:50:37.668Z,34.20
2018-08-28T13:53:07.001Z,34.30
2018-08-28T13:55:36.177Z,34.20
2018-08-28T13:58:06.020Z,34.10
2018-08-28T14:00:35.251Z,34.30
2018-08-28T14:03:05.068Z,34.80
2018-08-28T14:05:34.287Z,35.10
2018-08-28T14:08:03.479Z,35.20
2018-08-28T14:10:32.757Z,34.90
2018-08-28T14:13:08.288Z,34.80
2018-08-28T14:15:37.373Z,35.00
2018-08-28T14:18:06.783Z,35.10
2018-08-28T14:20:35.892Z,35.10
2018-08-28T14:23:05.665Z,35.10
2018-08-28T14:25:35.499Z,35.20
2018-08-28T14:28:05.066Z,34.80
2018-08-28T14:30:34.335Z,34.60
2018-08-28T14:33:04.893Z,34.30
2018-08-28T14:35:34.070Z,34.10
2018-08-28T14:38:03.195Z,34.10
2018-08-28T14:40:33.911Z,34.10
2018-08-28T14:43:03.057Z,34.10
2018-08-28T14:45:32.235Z,34.10
2018-08-28T14:48:01.448Z,34.20
2018-08-28T14:50:30.812Z,34.30
2018-08-28T14:53:00.519Z,34.50
2018-08-28T14:55:30.421Z,34.50
2018-08-28T14:58:00.160Z,34.80
2018-08-28T15:00:29.572Z,34.50
2018-08-28T15:02:58.676Z,34.60
2018-08-28T15:05:27.748Z,34.80
2018-08-28T15:07:56.897Z,34.60
2018-08-28T15:10:26.042Z,34.60
2018-08-28T15:12:55.326Z,35.00
2018-08-28T15:15:24.494Z,35.10
2018-08-28T15:17:54.373Z,34.80
2018-08-28T15:20:24.042Z,34.70
2018-08-28T15:22:53.124Z,34.10
2018-08-28T15:25:22.172Z,33.60
2018-08-28T15:27:51.443Z,33.30
2018-08-28T15:30:20.580Z,33.60
2018-08-28T15:32:49.779Z,33.70
2018-08-28T15:35:18.805Z,33.80
2018-08-28T15:37:48.015Z,34.10
2018-08-28T15:40:17.064Z,34.20
2018-08-28T15:42:46.212Z,34.20
2018-08-28T15:45:15.725Z,33.90
2018-08-28T15:47:44.965Z,33.50
2018-08-28T15:50:14.166Z,33.10
2018-08-28T15:52:43.417Z,33.20
2018-08-28T15:55:12.585Z,33.10
2018-08-28T15:57:41.672Z,32.90
2018-08-28T16:00:10.839Z,32.70
2018-08-28T16:02:40.069Z,32.40
2018-08-28T16:05:09.212Z,32.20
2018-08-28T16:07:39.018Z,32.20
2018-08-28T16:10:09.326Z,32.30
2018-08-28T16:12:38.524Z,32.20
2018-08-28T16:15:07.661Z,32.10
2018-08-28T16:17:36.850Z,31.70
2018-08-28T16:20:06.040Z,31.30
2018-08-28T16:22:41.262Z,30.80
2018-08-28T16:25:11.325Z,30.50
2018-08-28T16:27:40.444Z,30.10
2018-08-28T16:30:09.695Z,29.80
2018-08-28T16:32:38.844Z,29.50
2018-08-28T16:35:08.851Z,29.40
2018-08-28T16:37:38.148Z,29.20
2018-08-28T16:40:07.291Z,29.10
2018-08-28T16:42:36.568Z,28.80
2018-08-28T16:45:05.791Z,28.70
2018-08-28T16:47:36.080Z,28.60
2018-08-28T16:50:05.444Z,28.60
2018-08-28T16:52:34.522Z,28.50
2018-08-28T16:55:03.924Z,28.30
2018-08-28T16:57:32.998Z,28.10
2018-08-28T17:00:02.108Z,28.00
2018-08-28T17:02:31.204Z,27.80
2018-08-28T17:05:00.600Z,27.70
2018-08-28T17:07:29.804Z,27.50
2018-08-28T17:09:58.929Z,27.30
2018-08-28T17:12:28.550Z,27.20
2018-08-28T17:14:57.833Z,27.10
2018-08-28T17:17:26.965Z,27.00
2018-08-28T17:19:57.042Z,26.90
2018-08-28T17:22:26.136Z,26.70
2018-08-28T17:24:55.315Z,26.60
2018-08-28T17:27:24.529Z,26.50
2018-08-28T17:29:53.853Z,26.30
2018-08-28T17:32:23.005Z,26.20
2018-08-28T17:34:52.142Z,26.00
2018-08-28T17:37:21.365Z,26.00
2018-08-28T17:39:51.324Z,25.90
2018-08-28T17:42:20.415Z,25.80
2018-08-28T17:44:49.489Z,25.70
2018-08-28T17:47:18.785Z,25.60
2018-08-28T17:49:47.927Z,25.30
2018-08-28T17:52:16.993Z,25.10
2018-08-28T17:54:47.057Z,24.90
2018-08-28T17:57:16.160Z,24.70
2018-08-28T17:59:45.432Z,24.70
2018-08-28T18:02:14.719Z,24.50
2018-08-28T18:04:43.816Z,24.30
2018-08-28T18:07:13.008Z,24.10
2018-08-28T18:09:43.521Z,23.90
2018-08-28T18:12:12.671Z,23.70
2018-08-28T18:14:41.853Z,23.40
2018-08-28T18:17:10.977Z,23.20
2018-08-28T18:19:40.164Z,23.00
2018-08-28T18:22:09.355Z,22.90
2018-08-28T18:24:38.622Z,22.70
2018-08-28T18:27:07.702Z,22.60
2018-08-28T18:29:37.689Z,22.50
2018-08-28T18:32:06.829Z,22.40
2018-08-28T18:34:36.669Z,22.40
2018-08-28T18:37:06.363Z,22.30
2018-08-28T18:39:35.563Z,22.30
2018-08-28T18:42:04.738Z,22.20
2018-08-28T18:44:33.845Z,22.20
2018-08-28T18:47:03.596Z,22.20
2018-08-28T18:49:32.773Z,22.10
2018-08-28T18:52:01.865Z,22.10
2018-08-28T18:54:31.100Z,22.00
2018-08-28T18:57:00.384Z,21.90
2018-08-28T18:59:30.175Z,21.80
2018-08-28T19:01:59.431Z,21.80
2018-08-28T19:04:29.380Z,21.70
2018-08-28T19:06:58.472Z,21.60
2018-08-28T19:09:27.686Z,21.40
2018-08-28T19:11:57.074Z,21.30
2018-08-28T19:14:26.195Z,21.20
2018-08-28T19:16:55.515Z,21.00
2018-08-28T19:19:24.563Z,21.00
2018-08-28T19:21:54.234Z,20.90
2018-08-28T19:24:23.859Z,20.80
2018-08-28T19:26:52.976Z,20.80
2018-08-28T19:29:22.077Z,20.70
2018-08-28T19:31:51.564Z,20.70
2018-08-28T19:34:20.607Z,20.60
2018-08-28T19:36:50.477Z,20.60
2018-08-28T19:39:20.179Z,20.60
2018-08-28T19:41:49.357Z,20.60
2018-08-28T19:44:19.467Z,20.60
2018-08-28T19:46:48.599Z,20.50
2018-08-28T19:49:17.733Z,20.40
2018-08-28T19:51:46.814Z,20.30
2018-08-28T19:54:16.079Z,20.20
2018-08-28T19:56:45.794Z,20.00
2018-08-28T19:59:14.822Z,20.00
2018-08-28T20:01:43.969Z,19.90
2018-08-28T20:04:13.964Z,19.80
2018-08-28T20:06:43.084Z,19.60
2018-08-28T20:09:12.673Z,19.60
2018-08-28T20:11:41.842Z,19.50
2018-08-28T20:14:10.983Z,19.50
2018-08-28T20:16:40.238Z,19.60
2018-08-28T20:19:09.965Z,19.60
2018-08-28T20:21:39.110Z,19.60
2018-08-28T20:24:08.336Z,19.70
2018-08-28T20:26:37.462Z,19.70
2018-08-28T20:29:06.968Z,19.70
2018-08-28T20:31:36.186Z,19.70
2018-08-28T20:34:05.480Z,19.60
2018-08-28T20:36:34.694Z,19.60
2018-08-28T20:39:05.437Z,19.50
2018-08-28T20:41:35.108Z,19.30
2018-08-28T20:44:05.392Z,19.30
2018-08-28T20:46:34.463Z,19.30
2018-08-28T20:49:03.708Z,19.10
2018-08-28T20:51:33.486Z,19.10
2018-08-28T20:54:02.531Z,19.00
2018-08-28T20:56:31.663Z,18.90
2018-08-28T20:59:01.337Z,18.90
2018-08-28T21:01:30.704Z,19.00
2018-08-28T21:03:59.875Z,19.00
2018-08-28T21:06:29.054Z,19.00
2018-08-28T21:08:58.264Z,18.90
2018-08-28T21:11:27.359Z,18.90
2018-08-28T21:13:56.541Z,18.90
2018-08-28T21:16:25.644Z,18.90
2018-08-28T21:18:54.880Z,18.90
2018-08-28T21:21:24.237Z,18.70
2018-08-28T21:23:53.440Z,18.70
2018-08-28T21:26:22.599Z,18.70
2018-08-28T21:28:51.714Z,18.60
2018-08-28T21:31:20.815Z,18.60
2018-08-28T21:33:49.940Z,18.50
2018-08-28T21:36:19.288Z,18.50
2018-08-28T21:38:48.470Z,18.40
2018-08-28T21:41:17.642Z,18.50
2018-08-28T21:43:47.343Z,18.60
2018-08-28T21:46:16.747Z,18.70
2018-08-28T21:48:45.996Z,18.80
2018-08-28T21:51:15.187Z,18.90
2018-08-28T21:53:44.361Z,19.00
2018-08-28T21:56:13.907Z,19.00
2018-08-28T21:58:43.071Z,19.00
2018-08-28T22:01:13.490Z,19.00
2018-08-28T22:03:42.860Z,19.10
2018-08-28T22:06:17.318Z,19.20
2018-08-28T22:08:46.440Z,19.20
2018-08-28T22:11:15.515Z,19.20
2018-08-28T22:13:44.627Z,19.30
2018-08-28T22:16:14.470Z,19.30
2018-08-28T22:18:43.655Z,19.40
2018-08-28T22:21:12.714Z,19.40
2018-08-28T22:23:41.813Z,19.40
2018-08-28T22:26:10.996Z,19.50
2018-08-28T22:28:40.093Z,19.50
2018-08-28T22:31:09.220Z,19.50
2018-08-28T22:33:38.337Z,19.50
2018-08-28T22:36:07.407Z,19.50
2018-08-28T22:38:36.546Z,19.50
2018-08-28T22:41:05.704Z,19.50
2018-08-28T22:43:34.793Z,19.50
2018-08-28T22:46:03.869Z,19.40
2018-08-28T22:48:33.712Z,19.40
2018-08-28T22:51:02.849Z,19.40
2018-08-28T22:53:31.909Z,19.50
2018-08-28T22:56:01.070Z,19.40
2018-08-28T22:58:30.296Z,19.40
2018-08-28T23:00:59.384Z,19.50
2018-08-28T23:03:28.503Z,19.50
2018-08-28T23:05:57.647Z,19.50
2018-08-28T23:08:26.770Z,19.40
2018-08-28T23:10:55.882Z,19.40
2018-08-28T23:13:25.009Z,19.40
2018-08-28T23:15:54.158Z,19.40
2018-08-28T23:18:23.309Z,19.40
2018-08-28T23:20:52.408Z,19.40
2018-08-28T23:23:21.485Z,19.30
2018-08-28T23:25:50.604Z,19.30
2018-08-28T23:28:19.719Z,19.30
2018-08-28T23:30:48.886Z,19.20
2018-08-28T23:33:18.099Z,19.20
2018-08-28T23:35:47.992Z,19.20
2018-08-28T23:38:17.073Z,19.20
2018-08-28T23:40:46.123Z,19.20
2018-08-28T23:43:15.224Z,19.20
2018-08-28T23:45:44.407Z,19.20
2018-08-28T23:48:13.523Z,19.20
2018-08-28T23:50:42.728Z,19.20
2018-08-28T23:53:11.845Z,19.20
2018-08-28T23:55:41.697Z,19.20
2018-08-28T23:58:10.768Z,19.20
